createdAt,value
2019-03-26T00:03:17.949Z,3.57
2019-03-26T00:08:21.694Z,3.48
2019-03-26T00:13:25.563Z,3.49
2019-03-26T00:18:29.366Z,3.41
2019-03-26T00:23:33.143Z,3.45
2019-03-26T00:28:37.074Z,3.42
2019-03-26T00:33:40.909Z,3.43
2019-03-26T00:38:44.753Z,3.38
2019-03-26T00:43:48.587Z,3.35
2019-03-26T00:48:52.377Z,3.28
2019-03-26T00:53:56.213Z,3.24
2019-03-26T00:59:00.054Z,3.20
2019-03-26T01:04:03.948Z,3.09
2019-03-26T01:09:08.259Z,3.12
2019-03-26T01:14:12.260Z,2.98
2019-03-26T01:19:16.063Z,2.92
2019-03-26T01:24:20.064Z,2.77
2019-03-26T01:29:23.895Z,2.64
2019-03-26T01:34:27.816Z,2.63
2019-03-26T01:39:32.316Z,2.52
2019-03-26T01:44:36.295Z,2.52
2019-03-26T01:49:40.092Z,2.50
2019-03-26T01:54:43.913Z,2.46
2019-03-26T01:59:47.706Z,2.45
2019-03-26T02:04:59.812Z,2.48
2019-03-26T02:09:57.222Z,2.57
2019-03-26T02:15:01.444Z,2.60
2019-03-26T02:20:05.680Z,2.59
2019-03-26T02:25:09.719Z,2.63
2019-03-26T02:30:13.488Z,2.71
2019-03-26T02:35:19.198Z,2.75
2019-03-26T02:40:23.599Z,2.71
2019-03-26T02:45:27.373Z,2.65
2019-03-26T02:50:31.244Z,2.64
2019-03-26T02:55:35.047Z,2.63
2019-03-26T03:00:38.953Z,2.59
2019-03-26T03:05:42.723Z,2.59
2019-03-26T03:10:46.580Z,2.62
2019-03-26T03:15:50.399Z,2.70
2019-03-26T03:20:54.332Z,2.72
2019-03-26T03:25:58.481Z,2.76
2019-03-26T03:31:02.401Z,2.85
2019-03-26T03:36:06.318Z,2.79
2019-03-26T03:41:10.637Z,2.82
2019-03-26T03:46:14.436Z,2.84
2019-03-26T03:51:23.446Z,2.87
2019-03-26T03:56:30.276Z,2.86
2019-03-26T04:01:34.189Z,2.92
2019-03-26T04:06:37.949Z,2.94
2019-03-26T04:11:42.105Z,2.92
2019-03-26T04:16:46.038Z,2.92
2019-03-26T04:21:49.822Z,2.90
2019-03-26T04:26:53.729Z,2.93
2019-03-26T04:31:57.477Z,2.92
2019-03-26T04:37:01.551Z,2.96
2019-03-26T04:42:05.478Z,3.03
2019-03-26T04:47:09.275Z,3.03
2019-03-26T04:52:13.129Z,3.03
2019-03-26T04:57:16.875Z,3.05
2019-03-26T05:02:20.656Z,3.13
2019-03-26T05:07:24.467Z,3.06
2019-03-26T05:12:28.685Z,3.14
2019-03-26T05:17:32.767Z,3.22
2019-03-26T05:22:36.605Z,3.15
2019-03-26T05:27:45.527Z,3.09
2019-03-26T05:32:46.119Z,3.11
2019-03-26T05:37:50.224Z,3.34
2019-03-26T05:42:54.025Z,3.36
2019-03-26T05:47:57.847Z,3.33
2019-03-26T05:53:01.656Z,3.34
2019-03-26T05:58:05.401Z,3.45
2019-03-26T06:03:09.341Z,3.59
2019-03-26T06:08:13.116Z,3.90
2019-03-26T06:13:17.398Z,3.90
2019-03-26T06:18:21.246Z,3.93
2019-03-26T06:23:24.975Z,3.83
2019-03-26T06:28:28.756Z,3.87
2019-03-26T06:33:32.596Z,3.71
2019-03-26T06:38:36.591Z,3.86
2019-03-26T06:43:40.333Z,3.85
2019-03-26T06:48:44.096Z,3.99
2019-03-26T06:53:47.874Z,4.05
2019-03-26T06:58:52.041Z,4.13
2019-03-26T07:03:56.329Z,4.29
2019-03-26T07:09:00.115Z,4.13
2019-03-26T07:14:04.080Z,4.36
2019-03-26T07:19:08.030Z,4.44
2019-03-26T07:24:11.789Z,4.28
2019-03-26T07:29:15.774Z,4.23
2019-03-26T07:34:19.904Z,4.60
2019-03-26T07:39:23.671Z,4.86
2019-03-26T07:44:27.582Z,4.53
2019-03-26T07:49:31.325Z,4.62
2019-03-26T07:54:35.092Z,4.64
2019-03-26T07:59:38.858Z,4.96
2019-03-26T08:04:42.750Z,5.26
2019-03-26T08:09:46.685Z,4.86
2019-03-26T08:14:50.463Z,4.76
2019-03-26T08:19:54.198Z,5.23
2019-03-26T08:24:58.030Z,5.69
2019-03-26T08:30:01.790Z,5.19
2019-03-26T08:35:05.924Z,4.90
2019-03-26T08:40:09.985Z,4.93
2019-03-26T08:45:14.119Z,5.32
2019-03-26T08:50:17.934Z,5.91
2019-03-26T08:55:21.676Z,6.17
2019-03-26T09:00:25.464Z,6.11
2019-03-26T09:05:29.326Z,5.57
2019-03-26T09:10:33.115Z,5.67
2019-03-26T09:15:36.950Z,6.37
2019-03-26T09:20:40.734Z,5.90
2019-03-26T09:25:44.579Z,6.50
2019-03-26T09:30:48.347Z,6.11
2019-03-26T09:35:52.247Z,6.06
2019-03-26T09:40:55.996Z,6.30
2019-03-26T09:46:00.324Z,5.83
2019-03-26T09:51:04.295Z,5.98
2019-03-26T09:56:08.053Z,5.93
2019-03-26T10:01:11.820Z,6.24
2019-03-26T10:06:23.354Z,6.04
2019-03-26T10:11:21.263Z,6.31
2019-03-26T10:16:25.021Z,6.39
2019-03-26T10:21:28.999Z,6.53
2019-03-26T10:26:32.743Z,6.52
2019-03-26T10:31:36.508Z,6.40
2019-03-26T10:36:41.662Z,6.19
2019-03-26T10:41:45.854Z,6.18
2019-03-26T10:46:49.712Z,6.10
2019-03-26T10:51:53.475Z,5.95
2019-03-26T10:56:57.225Z,5.95
2019-03-26T11:02:01.105Z,6.17
2019-03-26T11:07:05.279Z,6.36
2019-03-26T11:12:09.087Z,6.51
2019-03-26T11:17:12.833Z,6.81
2019-03-26T11:22:16.578Z,6.81
2019-03-26T11:27:20.385Z,7.01
2019-03-26T11:32:24.389Z,7.15
2019-03-26T11:37:28.166Z,7.61
2019-03-26T11:42:31.930Z,8.03
2019-03-26T11:47:36.062Z,7.03
2019-03-26T11:52:40.269Z,6.97
2019-03-26T11:57:44.136Z,7.33
2019-03-26T12:02:47.886Z,7.62
2019-03-26T12:07:51.668Z,7.10
2019-03-26T12:12:55.866Z,7.28
2019-03-26T12:17:59.595Z,7.06
2019-03-26T12:23:03.346Z,6.84
2019-03-26T12:28:07.181Z,6.92
2019-03-26T12:33:11.146Z,7.01
2019-03-26T12:38:21.497Z,7.57
2019-03-26T12:43:25.336Z,7.92
2019-03-26T12:48:29.125Z,7.84
2019-03-26T12:53:32.861Z,8.30
2019-03-26T12:58:36.879Z,8.94
2019-03-26T13:03:40.826Z,8.76
2019-03-26T13:08:44.723Z,8.47
2019-03-26T13:13:48.541Z,7.88
2019-03-26T13:18:52.409Z,7.81
2019-03-26T13:23:56.169Z,7.59
2019-03-26T13:29:00.089Z,7.66
2019-03-26T13:34:03.872Z,7.43
2019-03-26T13:39:09.650Z,7.71
2019-03-26T13:44:13.426Z,7.38
2019-03-26T13:49:17.209Z,7.62
2019-03-26T13:54:20.978Z,7.57
2019-03-26T13:59:24.882Z,7.48
2019-03-26T14:04:28.644Z,7.20
2019-03-26T14:09:32.428Z,7.09
2019-03-26T14:14:36.283Z,7.54
2019-03-26T14:19:40.194Z,7.70
2019-03-26T14:24:43.974Z,7.83
2019-03-26T14:29:47.887Z,8.12
2019-03-26T14:34:51.996Z,8.15
2019-03-26T14:39:55.940Z,8.49
2019-03-26T14:44:59.704Z,8.50
2019-03-26T14:50:04.489Z,8.69
2019-03-26T14:55:08.518Z,8.59
2019-03-26T15:00:12.982Z,8.34
2019-03-26T15:05:17.020Z,8.68
2019-03-26T15:10:23.331Z,8.53
2019-03-26T15:15:26.528Z,8.26
2019-03-26T15:20:30.325Z,8.23
2019-03-26T15:25:34.117Z,8.08
2019-03-26T15:30:37.942Z,7.66
2019-03-26T15:35:41.739Z,7.25
2019-03-26T15:40:45.618Z,7.19
2019-03-26T15:45:50.027Z,7.21
2019-03-26T15:50:53.858Z,7.19
2019-03-26T15:55:57.608Z,7.07
2019-03-26T16:01:01.399Z,7.09
2019-03-26T16:06:05.349Z,7.14
2019-03-26T16:11:09.131Z,6.79
2019-03-26T16:16:12.993Z,6.64
2019-03-26T16:21:16.839Z,6.49
2019-03-26T16:26:20.897Z,6.37
2019-03-26T16:31:25.028Z,6.21
2019-03-26T16:36:28.902Z,6.07
2019-03-26T16:41:32.680Z,6.06
2019-03-26T16:46:36.602Z,5.98
2019-03-26T16:51:40.417Z,5.94
2019-03-26T16:56:44.189Z,5.95
2019-03-26T17:01:48.033Z,5.90
2019-03-26T17:06:52.031Z,5.95
2019-03-26T17:12:03.262Z,5.95
2019-03-26T17:17:01.586Z,5.92
2019-03-26T17:22:05.447Z,5.92
2019-03-26T17:27:09.250Z,5.95
2019-03-26T17:32:13.369Z,5.92
2019-03-26T17:37:17.492Z,5.91
2019-03-26T17:42:21.307Z,5.90
2019-03-26T17:47:25.085Z,5.99
2019-03-26T17:52:28.997Z,5.98
2019-03-26T17:57:32.833Z,5.92
2019-03-26T18:02:36.662Z,5.98
2019-03-26T18:07:40.556Z,5.92
2019-03-26T18:12:46.621Z,5.87
2019-03-26T18:17:50.153Z,5.72
2019-03-26T18:22:54.035Z,5.63
2019-03-26T18:27:58.132Z,5.45
2019-03-26T18:33:01.986Z,5.46
2019-03-26T18:38:06.753Z,5.50
2019-03-26T18:43:10.610Z,5.54
2019-03-26T18:48:15.076Z,5.53
2019-03-26T18:53:19.121Z,5.63
2019-03-26T18:58:22.990Z,5.62
2019-03-26T19:03:26.965Z,5.65
2019-03-26T19:08:30.845Z,5.66
2019-03-26T19:13:34.659Z,4.95
2019-03-26T19:18:38.458Z,4.46
2019-03-26T19:23:42.207Z,4.46
2019-03-26T19:28:46.069Z,4.39
2019-03-26T19:33:49.842Z,4.25
2019-03-26T19:38:53.746Z,4.22
2019-03-26T19:43:57.740Z,4.19
2019-03-26T19:49:01.656Z,4.11
2019-03-26T19:54:05.508Z,3.92
2019-03-26T19:59:09.480Z,3.43
2019-03-26T20:04:13.350Z,3.28
2019-03-26T20:09:17.185Z,3.25
2019-03-26T20:14:20.980Z,3.27
2019-03-26T20:19:25.025Z,3.31
2019-03-26T20:24:28.795Z,3.33
2019-03-26T20:29:32.633Z,3.41
2019-03-26T20:34:36.381Z,3.50
2019-03-26T20:39:40.259Z,3.48
2019-03-26T20:44:44.289Z,3.49
2019-03-26T20:49:48.059Z,3.49
2019-03-26T20:54:51.950Z,3.57
2019-03-26T20:59:56.000Z,3.59
2019-03-26T21:04:59.957Z,3.48
2019-03-26T21:10:04.600Z,3.37
2019-03-26T21:15:09.951Z,3.43
2019-03-26T21:20:13.735Z,3.34
2019-03-26T21:25:17.679Z,3.25
2019-03-26T21:30:21.746Z,3.30
2019-03-26T21:35:28.659Z,3.26
2019-03-26T21:40:31.400Z,3.21
2019-03-26T21:45:45.106Z,3.24
2019-03-26T21:50:50.135Z,3.23
2019-03-26T21:56:05.892Z,3.14
2019-03-26T22:00:59.740Z,3.20
2019-03-26T22:06:04.137Z,3.15
2019-03-26T22:11:08.345Z,3.18
2019-03-26T22:16:13.301Z,3.23
2019-03-26T22:21:17.169Z,3.19
2019-03-26T22:26:21.041Z,3.19
2019-03-26T22:31:25.077Z,3.23
2019-03-26T22:36:28.863Z,3.11
2019-03-26T22:41:32.684Z,3.03
2019-03-26T22:46:36.493Z,3.07
2019-03-26T22:51:40.377Z,2.96
2019-03-26T22:56:44.140Z,2.92
2019-03-26T23:01:50.930Z,2.89
2019-03-26T23:06:53.863Z,2.92
2019-03-26T23:11:57.921Z,2.84
2019-03-26T23:17:02.147Z,2.75
2019-03-26T23:22:05.898Z,2.80
2019-03-26T23:27:09.885Z,2.72
2019-03-26T23:32:13.833Z,2.69
2019-03-26T23:37:17.626Z,2.72
2019-03-26T23:42:21.576Z,2.75
2019-03-26T23:47:25.415Z,2.61
2019-03-26T23:52:29.503Z,2.52
2019-03-26T23:57:33.339Z,2.49
